createdAt,value
2019-02-08T00:00:58.527Z,-67
2019-02-08T00:01:59.431Z,-67
2019-02-08T00:03:00.282Z,-67
2019-02-08T00:04:01.166Z,-67
2019-02-08T00:05:02.175Z,-67
2019-02-08T00:06:03.055Z,-67
2019-02-08T00:07:03.965Z,-67
2019-02-08T00:08:05.235Z,-67
2019-02-08T00:09:06.155Z,-67
2019-02-08T00:10:07.206Z,-67
2019-02-08T00:11:08.047Z,-67
2019-02-08T00:12:08.910Z,-67
2019-02-08T00:13:09.755Z,-67
2019-02-08T00:14:10.573Z,-67
2019-02-08T00:15:11.407Z,-67
2019-02-08T00:16:12.352Z,-67
2019-02-08T00:17:13.737Z,-66
2019-02-08T00:18:14.594Z,-68
2019-02-08T00:19:15.818Z,-67
2019-02-08T00:20:16.660Z,-67
2019-02-08T00:21:37.498Z,-67
2019-02-08T00:22:38.464Z,-67
2019-02-08T00:23:39.393Z,-67
2019-02-08T00:24:40.207Z,-67
2019-02-08T00:25:41.147Z,-67
2019-02-08T00:26:42.067Z,-67
2019-02-08T00:27:43.194Z,-67
2019-02-08T00:28:44.017Z,-67
2019-02-08T00:29:44.844Z,-67
2019-02-08T00:30:45.719Z,-67
2019-02-08T00:31:46.661Z,-67
2019-02-08T00:32:47.577Z,-67
2019-02-08T00:33:48.552Z,-67
2019-02-08T00:34:49.495Z,-67
2019-02-08T00:35:50.426Z,-67
2019-02-08T00:36:51.768Z,-67
2019-02-08T00:37:52.661Z,-67
2019-02-08T00:38:53.498Z,-67
2019-02-08T00:39:54.337Z,-67
2019-02-08T00:40:55.163Z,-67
2019-02-08T00:41:56.007Z,-67
2019-02-08T00:42:56.881Z,-67
2019-02-08T00:43:57.687Z,-67
2019-02-08T00:44:59.215Z,-67
2019-02-08T00:46:00.061Z,-67
2019-02-08T00:47:00.891Z,-67
2019-02-08T00:48:01.786Z,-67
2019-02-08T00:49:02.722Z,-67
2019-02-08T00:50:03.600Z,-67
2019-02-08T00:51:04.428Z,-67
2019-02-08T00:52:05.278Z,-66
2019-02-08T00:53:06.420Z,-66
2019-02-08T00:54:07.361Z,-67
2019-02-08T00:55:08.187Z,-67
2019-02-08T00:56:09.016Z,-67
2019-02-08T00:57:09.931Z,-67
2019-02-08T00:58:10.775Z,-67
2019-02-08T00:59:11.610Z,-67
2019-02-08T01:00:12.533Z,-67
2019-02-08T01:01:13.492Z,-67
2019-02-08T01:02:14.803Z,-67
2019-02-08T01:03:15.640Z,-67
2019-02-08T01:04:16.468Z,-67
2019-02-08T01:05:17.416Z,-67
2019-02-08T01:06:18.527Z,-67
2019-02-08T01:07:19.583Z,-67
2019-02-08T01:08:20.666Z,-67
2019-02-08T01:09:22.009Z,-67
2019-02-08T01:10:23.517Z,-67
2019-02-08T01:11:25.010Z,-67
2019-02-08T01:12:26.167Z,-67
2019-02-08T01:13:28.498Z,-67
2019-02-08T01:14:29.943Z,-67
2019-02-08T01:15:31.087Z,-67
2019-02-08T01:16:32.251Z,-67
2019-02-08T01:17:33.286Z,-67
2019-02-08T01:18:34.335Z,-67
2019-02-08T01:19:35.970Z,-67
2019-02-08T01:20:36.964Z,-67
2019-02-08T01:21:38.021Z,-67
2019-02-08T01:22:39.147Z,-67
2019-02-08T01:23:41.486Z,-67
2019-02-08T01:24:42.786Z,-68
2019-02-08T01:25:43.787Z,-67
2019-02-08T01:26:44.920Z,-67
2019-02-08T01:27:45.897Z,-67
2019-02-08T01:28:46.901Z,-67
2019-02-08T01:29:48.711Z,-69
2019-02-08T01:30:49.818Z,-66
2019-02-08T01:31:51.071Z,-67
2019-02-08T01:32:52.364Z,-67
2019-02-08T01:33:53.340Z,-67
2019-02-08T01:34:54.212Z,-67
2019-02-08T01:35:55.100Z,-67
2019-02-08T01:36:55.930Z,-67
2019-02-08T01:37:56.760Z,-67
2019-02-08T01:38:57.621Z,-67
2019-02-08T01:39:58.582Z,-67
2019-02-08T01:40:59.536Z,-67
2019-02-08T01:42:00.382Z,-67
2019-02-08T01:43:01.357Z,-67
2019-02-08T01:44:02.177Z,-67
2019-02-08T01:45:03.020Z,-67
2019-02-08T01:46:03.905Z,-67
2019-02-08T01:47:04.771Z,-67
2019-02-08T01:48:05.598Z,-67
2019-02-08T01:49:06.457Z,-67
2019-02-08T01:50:07.277Z,-67
2019-02-08T01:51:08.640Z,-67
2019-02-08T01:52:09.746Z,-67
2019-02-08T01:53:10.558Z,-65
2019-02-08T01:54:11.394Z,-65
2019-02-08T01:55:12.247Z,-65
2019-02-08T01:56:13.125Z,-65
2019-02-08T01:57:13.965Z,-65
2019-02-08T01:58:14.811Z,-65
2019-02-08T01:59:15.665Z,-65
2019-02-08T02:00:16.507Z,-65
2019-02-08T02:01:17.340Z,-65
2019-02-08T02:02:18.179Z,-65
2019-02-08T02:03:19.058Z,-65
2019-02-08T02:04:19.873Z,-65
2019-02-08T02:05:20.694Z,-65
2019-02-08T02:06:21.531Z,-65
2019-02-08T02:07:22.379Z,-65
2019-02-08T02:08:23.231Z,-65
2019-02-08T02:09:24.101Z,-66
2019-02-08T02:10:24.939Z,-68
2019-02-08T02:11:25.846Z,-68
2019-02-08T02:12:26.685Z,-69
2019-02-08T02:13:27.554Z,-69
2019-02-08T02:14:28.541Z,-66
2019-02-08T02:15:29.368Z,-66
2019-02-08T02:16:30.202Z,-66
2019-02-08T02:17:31.047Z,-68
2019-02-08T02:18:31.913Z,-67
2019-02-08T02:19:32.771Z,-67
2019-02-08T02:20:33.589Z,-67
2019-02-08T02:21:34.528Z,-67
2019-02-08T02:22:35.391Z,-67
2019-02-08T02:23:36.209Z,-67
2019-02-08T02:24:37.059Z,-67
2019-02-08T02:25:37.887Z,-67
2019-02-08T02:26:40.643Z,-67
2019-02-08T02:27:41.468Z,-67
2019-02-08T02:28:42.302Z,-67
2019-02-08T02:29:43.124Z,-67
2019-02-08T02:30:43.966Z,-68
2019-02-08T02:31:44.872Z,-67
2019-02-08T02:32:45.756Z,-68
2019-02-08T02:33:46.597Z,-67
2019-02-08T02:34:47.441Z,-67
2019-02-08T02:35:48.374Z,-67
2019-02-08T02:36:49.203Z,-67
2019-02-08T02:37:50.045Z,-67
2019-02-08T02:38:50.873Z,-67
2019-02-08T02:39:51.821Z,-67
2019-02-08T02:40:52.669Z,-67
2019-02-08T02:41:53.490Z,-67
2019-02-08T02:42:54.314Z,-67
2019-02-08T02:43:55.181Z,-67
2019-02-08T02:44:56.001Z,-67
2019-02-08T02:45:56.828Z,-67
2019-02-08T02:46:57.673Z,-68
2019-02-08T02:47:58.497Z,-67
2019-02-08T02:48:59.369Z,-67
2019-02-08T02:50:00.179Z,-67
2019-02-08T02:51:01.105Z,-67
2019-02-08T02:52:01.891Z,-67
2019-02-08T02:53:02.714Z,-67
2019-02-08T02:54:04.979Z,-67
2019-02-08T02:55:06.175Z,-67
2019-02-08T02:56:07.050Z,-67
2019-02-08T02:57:07.872Z,-67
2019-02-08T02:58:08.698Z,-67
2019-02-08T02:59:09.522Z,-67
2019-02-08T03:00:10.352Z,-67
2019-02-08T03:01:11.215Z,-67
2019-02-08T03:02:12.081Z,-67
2019-02-08T03:03:12.914Z,-67
2019-02-08T03:04:13.829Z,-67
2019-02-08T03:05:14.666Z,-67
2019-02-08T03:06:15.495Z,-67
2019-02-08T03:07:16.362Z,-67
2019-02-08T03:08:17.229Z,-67
2019-02-08T03:09:18.079Z,-66
2019-02-08T03:10:18.942Z,-67
2019-02-08T03:11:19.781Z,-67
2019-02-08T03:12:20.662Z,-67
2019-02-08T03:13:21.600Z,-67
2019-02-08T03:14:22.434Z,-67
2019-02-08T03:15:23.250Z,-67
2019-02-08T03:16:24.074Z,-67
2019-02-08T03:17:25.163Z,-67
2019-02-08T03:18:26.085Z,-67
2019-02-08T03:19:26.920Z,-67
2019-02-08T03:20:27.771Z,-67
2019-02-08T03:21:28.625Z,-67
2019-02-08T03:22:29.607Z,-68
2019-02-08T03:23:30.449Z,-67
2019-02-08T03:24:31.539Z,-67
2019-02-08T03:25:32.373Z,-67
2019-02-08T03:26:33.223Z,-68
2019-02-08T03:27:34.105Z,-67
2019-02-08T03:28:34.941Z,-67
2019-02-08T03:29:35.773Z,-67
2019-02-08T03:30:36.605Z,-67
2019-02-08T03:31:37.454Z,-67
2019-02-08T03:32:38.404Z,-67
2019-02-08T03:33:39.247Z,-67
2019-02-08T03:34:40.406Z,-67
2019-02-08T03:35:41.226Z,-67
2019-02-08T03:36:42.067Z,-67
2019-02-08T03:37:42.896Z,-67
2019-02-08T03:38:43.764Z,-67
2019-02-08T03:39:44.602Z,-67
2019-02-08T03:40:45.471Z,-67
2019-02-08T03:41:46.285Z,-67
2019-02-08T03:42:47.126Z,-67
2019-02-08T03:43:48.037Z,-67
2019-02-08T03:44:48.913Z,-67
2019-02-08T03:45:49.777Z,-67
2019-02-08T03:46:50.616Z,-67
2019-02-08T03:47:51.479Z,-67
2019-02-08T03:48:52.303Z,-67
2019-02-08T03:49:53.133Z,-67
2019-02-08T03:50:54.021Z,-67
2019-02-08T03:51:54.840Z,-67
2019-02-08T03:52:55.672Z,-67
2019-02-08T03:53:56.497Z,-67
2019-02-08T03:54:57.374Z,-67
2019-02-08T03:55:58.970Z,-67
2019-02-08T03:57:00.167Z,-67
2019-02-08T03:58:01.005Z,-67
2019-02-08T03:59:01.946Z,-67
2019-02-08T04:00:02.767Z,-67
2019-02-08T04:01:03.774Z,-67
2019-02-08T04:02:04.626Z,-67
2019-02-08T04:03:05.551Z,-67
2019-02-08T04:04:06.370Z,-67
2019-02-08T04:05:07.206Z,-67
2019-02-08T04:06:08.088Z,-68
2019-02-08T04:07:08.924Z,-67
2019-02-08T04:08:09.741Z,-67
2019-02-08T04:09:10.640Z,-67
2019-02-08T04:10:11.457Z,-67
2019-02-08T04:11:12.617Z,-66
2019-02-08T04:12:13.442Z,-66
2019-02-08T04:13:14.500Z,-66
2019-02-08T04:14:15.422Z,-67
2019-02-08T04:15:16.246Z,-67
2019-02-08T04:16:17.103Z,-67
2019-02-08T04:17:17.947Z,-67
2019-02-08T04:18:18.808Z,-67
2019-02-08T04:19:19.650Z,-67
2019-02-08T04:20:20.464Z,-67
2019-02-08T04:21:21.319Z,-67
2019-02-08T04:22:22.260Z,-68
2019-02-08T04:23:23.105Z,-67
2019-02-08T04:24:29.803Z,-67
2019-02-08T04:25:26.656Z,-67
2019-02-08T04:26:27.583Z,-67
2019-02-08T04:27:28.442Z,-67
2019-02-08T04:28:29.299Z,-67
2019-02-08T04:29:30.130Z,-67
2019-02-08T04:30:30.985Z,-68
2019-02-08T04:31:31.808Z,-68
2019-02-08T04:32:32.650Z,-68
2019-02-08T04:33:33.536Z,-67
2019-02-08T04:34:34.434Z,-67
2019-02-08T04:35:35.257Z,-67
2019-02-08T04:36:36.114Z,-67
2019-02-08T04:37:37.161Z,-68
2019-02-08T04:38:38.020Z,-68
2019-02-08T04:39:38.923Z,-67
2019-02-08T04:40:39.748Z,-67
2019-02-08T04:41:40.600Z,-67
2019-02-08T04:42:41.422Z,-67
2019-02-08T04:43:42.320Z,-67
2019-02-08T04:44:43.258Z,-67
2019-02-08T04:45:44.116Z,-67
2019-02-08T04:46:44.946Z,-67
2019-02-08T04:47:45.775Z,-68
2019-02-08T04:48:46.610Z,-68
2019-02-08T04:49:47.431Z,-68
2019-02-08T04:50:48.291Z,-67
2019-02-08T04:51:49.116Z,-67
2019-02-08T04:52:49.987Z,-67
2019-02-08T04:53:53.768Z,-67
2019-02-08T04:54:54.581Z,-67
2019-02-08T04:55:55.429Z,-67
2019-02-08T04:56:56.236Z,-67
2019-02-08T04:57:57.105Z,-67
2019-02-08T04:58:58.198Z,-67
2019-02-08T04:59:59.026Z,-67
2019-02-08T05:00:59.853Z,-67
2019-02-08T05:02:00.702Z,-67
2019-02-08T05:03:01.657Z,-67
2019-02-08T05:04:02.506Z,-67
2019-02-08T05:05:03.338Z,-67
2019-02-08T05:06:04.233Z,-67
2019-02-08T05:07:05.075Z,-67
2019-02-08T05:08:05.913Z,-67
2019-02-08T05:09:06.856Z,-67
2019-02-08T05:10:07.680Z,-67
2019-02-08T05:11:08.651Z,-67
2019-02-08T05:12:09.485Z,-66
2019-02-08T05:13:10.306Z,-67
2019-02-08T05:14:11.401Z,-67
2019-02-08T05:15:12.239Z,-67
2019-02-08T05:16:13.114Z,-67
2019-02-08T05:17:13.972Z,-67
2019-02-08T05:18:14.826Z,-68
2019-02-08T05:19:15.647Z,-67
2019-02-08T05:20:16.470Z,-67
2019-02-08T05:21:17.301Z,-67
2019-02-08T05:22:18.131Z,-67
2019-02-08T05:23:19.010Z,-67
2019-02-08T05:24:19.934Z,-68
2019-02-08T05:25:20.769Z,-68
2019-02-08T05:26:21.599Z,-68
2019-02-08T05:27:22.485Z,-68
2019-02-08T05:28:23.323Z,-68
2019-02-08T05:29:24.162Z,-68
2019-02-08T05:30:25.077Z,-68
2019-02-08T05:31:25.911Z,-68
2019-02-08T05:32:26.806Z,-68
2019-02-08T05:33:27.637Z,-69
2019-02-08T05:34:28.472Z,-68
2019-02-08T05:35:29.323Z,-68
2019-02-08T05:36:30.183Z,-68
2019-02-08T05:37:30.998Z,-68
2019-02-08T05:38:31.835Z,-68
2019-02-08T05:39:32.657Z,-69
2019-02-08T05:40:33.502Z,-68
2019-02-08T05:41:34.379Z,-69
2019-02-08T05:42:35.208Z,-69
2019-02-08T05:43:36.186Z,-69
2019-02-08T05:44:37.009Z,-69
2019-02-08T05:45:37.874Z,-69
2019-02-08T05:46:38.722Z,-69
2019-02-08T05:47:39.651Z,-69
2019-02-08T05:48:40.514Z,-68
2019-02-08T05:49:41.370Z,-67
2019-02-08T05:50:42.263Z,-69
2019-02-08T05:51:43.094Z,-67
2019-02-08T05:52:43.916Z,-67
2019-02-08T05:53:44.731Z,-67
2019-02-08T05:54:45.573Z,-67
2019-02-08T05:55:46.560Z,-67
2019-02-08T05:56:47.377Z,-67
2019-02-08T05:57:48.207Z,-67
2019-02-08T05:58:49.080Z,-67
2019-02-08T05:59:49.907Z,-67
2019-02-08T06:00:50.747Z,-67
2019-02-08T06:01:51.613Z,-68
2019-02-08T06:02:52.569Z,-68
2019-02-08T06:03:53.482Z,-68
2019-02-08T06:04:54.318Z,-69
2019-02-08T06:05:55.170Z,-68
2019-02-08T06:06:56.018Z,-68
2019-02-08T06:07:56.836Z,-68
2019-02-08T06:08:57.691Z,-68
2019-02-08T06:09:58.836Z,-68
2019-02-08T06:11:01.057Z,-68
2019-02-08T06:12:01.889Z,-68
2019-02-08T06:13:02.726Z,-68
2019-02-08T06:14:03.591Z,-69
2019-02-08T06:15:04.420Z,-69
2019-02-08T06:16:05.257Z,-67
2019-02-08T06:17:06.104Z,-67
2019-02-08T06:18:06.921Z,-67
2019-02-08T06:19:07.906Z,-67
2019-02-08T06:20:08.736Z,-67
2019-02-08T06:21:09.569Z,-67
2019-02-08T06:22:10.511Z,-68
2019-02-08T06:23:13.260Z,-68
2019-02-08T06:24:14.320Z,-68
2019-02-08T06:25:15.282Z,-68
2019-02-08T06:26:16.279Z,-68
2019-02-08T06:27:17.112Z,-68
2019-02-08T06:28:17.997Z,-68
2019-02-08T06:29:18.825Z,-68
2019-02-08T06:30:19.671Z,-68
2019-02-08T06:31:20.746Z,-68
2019-02-08T06:32:21.571Z,-68
2019-02-08T06:33:22.449Z,-68
2019-02-08T06:34:23.292Z,-68
2019-02-08T06:35:24.231Z,-68
2019-02-08T06:36:25.104Z,-66
2019-02-08T06:37:25.962Z,-66
2019-02-08T06:38:26.807Z,-66
2019-02-08T06:39:27.659Z,-67
2019-02-08T06:40:28.471Z,-67
2019-02-08T06:41:29.341Z,-67
2019-02-08T06:42:30.170Z,-67
2019-02-08T06:43:31.046Z,-67
2019-02-08T06:44:31.909Z,-67
2019-02-08T06:45:32.744Z,-67
2019-02-08T06:46:33.581Z,-68
2019-02-08T06:47:34.421Z,-69
2019-02-08T06:48:35.342Z,-69
2019-02-08T06:49:38.846Z,-69
2019-02-08T06:50:39.684Z,-69
2019-02-08T06:51:40.521Z,-69
2019-02-08T06:52:41.413Z,-69
2019-02-08T06:53:42.498Z,-69
2019-02-08T06:54:43.389Z,-69
2019-02-08T06:55:44.426Z,-69
2019-02-08T06:56:45.333Z,-69
2019-02-08T06:57:46.168Z,-69
2019-02-08T06:58:47.085Z,-69
2019-02-08T06:59:47.972Z,-69
2019-02-08T07:00:48.842Z,-69
2019-02-08T07:01:49.669Z,-69
2019-02-08T07:02:50.496Z,-69
2019-02-08T07:03:51.365Z,-69
2019-02-08T07:04:52.206Z,-69
2019-02-08T07:05:53.044Z,-69
2019-02-08T07:06:53.869Z,-69
2019-02-08T07:07:54.753Z,-69
2019-02-08T07:08:55.615Z,-69
2019-02-08T07:09:56.448Z,-69
2019-02-08T07:10:57.266Z,-69
2019-02-08T07:11:58.401Z,-69
2019-02-08T07:12:59.291Z,-69
2019-02-08T07:14:00.168Z,-69
2019-02-08T07:15:09.874Z,-69
2019-02-08T07:16:10.713Z,-69
2019-02-08T07:17:11.607Z,-69
2019-02-08T07:18:12.556Z,-69
2019-02-08T07:19:13.425Z,-69
2019-02-08T07:20:14.272Z,-69
2019-02-08T07:21:15.107Z,-69
2019-02-08T07:22:15.936Z,-69
2019-02-08T07:23:16.765Z,-69
2019-02-08T07:24:18.849Z,-69
2019-02-08T07:25:19.700Z,-69
2019-02-08T07:26:20.561Z,-69
2019-02-08T07:27:21.394Z,-66
2019-02-08T07:28:22.236Z,-68
2019-02-08T07:29:23.121Z,-68
2019-02-08T07:30:23.963Z,-68
2019-02-08T07:31:24.856Z,-68
2019-02-08T07:32:25.780Z,-68
2019-02-08T07:33:26.601Z,-68
2019-02-08T07:34:27.477Z,-68
2019-02-08T07:35:28.347Z,-68
2019-02-08T07:36:29.264Z,-68
2019-02-08T07:37:30.094Z,-68
2019-02-08T07:38:31.077Z,-68
2019-02-08T07:39:31.919Z,-68
2019-02-08T07:40:32.866Z,-68
2019-02-08T07:41:33.702Z,-68
2019-02-08T07:42:34.572Z,-68
2019-02-08T07:43:35.472Z,-68
2019-02-08T07:44:36.297Z,-68
2019-02-08T07:45:37.158Z,-68
2019-02-08T07:46:37.978Z,-68
2019-02-08T07:47:38.842Z,-68
2019-02-08T07:48:39.701Z,-68
2019-02-08T07:49:40.555Z,-68
2019-02-08T07:50:41.405Z,-68
2019-02-08T07:51:42.296Z,-67
2019-02-08T07:52:43.232Z,-67
2019-02-08T07:53:44.068Z,-66
2019-02-08T07:54:44.906Z,-66
2019-02-08T07:55:45.889Z,-67
2019-02-08T07:56:46.797Z,-67
2019-02-08T07:57:47.629Z,-67
2019-02-08T07:58:48.469Z,-67
2019-02-08T07:59:49.350Z,-68
2019-02-08T08:00:50.212Z,-68
2019-02-08T08:01:51.035Z,-68
2019-02-08T08:02:51.914Z,-68
2019-02-08T08:03:52.758Z,-68
2019-02-08T08:04:53.844Z,-68
2019-02-08T08:05:54.678Z,-68
2019-02-08T08:06:55.545Z,-68
2019-02-08T08:07:56.425Z,-67
2019-02-08T08:08:57.276Z,-67
2019-02-08T08:09:58.101Z,-68
2019-02-08T08:10:58.946Z,-68
2019-02-08T08:11:59.779Z,-68
2019-02-08T08:13:00.681Z,-68
2019-02-08T08:14:01.521Z,-68
2019-02-08T08:15:02.415Z,-68
2019-02-08T08:16:03.250Z,-68
2019-02-08T08:17:04.177Z,-68
2019-02-08T08:18:05.046Z,-67
2019-02-08T08:19:05.889Z,-67
2019-02-08T08:20:06.716Z,-67
2019-02-08T08:21:07.544Z,-67
2019-02-08T08:22:08.390Z,-68
2019-02-08T08:23:09.338Z,-68
2019-02-08T08:24:10.185Z,-68
2019-02-08T08:25:11.038Z,-67
2019-02-08T08:26:11.885Z,-67
2019-02-08T08:27:12.890Z,-67
2019-02-08T08:28:13.730Z,-68
2019-02-08T08:29:14.622Z,-68
2019-02-08T08:30:15.786Z,-68
2019-02-08T08:31:16.706Z,-68
2019-02-08T08:32:17.546Z,-68
2019-02-08T08:33:18.374Z,-67
2019-02-08T08:34:19.235Z,-67
2019-02-08T08:35:20.063Z,-68
2019-02-08T08:36:20.895Z,-68
2019-02-08T08:37:21.790Z,-68
2019-02-08T08:38:22.686Z,-68
2019-02-08T08:39:23.671Z,-68
2019-02-08T08:40:24.498Z,-68
2019-02-08T08:41:25.349Z,-68
2019-02-08T08:42:26.485Z,-68
2019-02-08T08:43:27.434Z,-68
2019-02-08T08:44:29.753Z,-68
2019-02-08T08:45:30.603Z,-68
2019-02-08T08:46:31.496Z,-68
2019-02-08T08:47:32.415Z,-68
2019-02-08T08:48:33.255Z,-68
2019-02-08T08:49:34.155Z,-68
2019-02-08T08:50:34.991Z,-68
2019-02-08T08:51:35.826Z,-68
2019-02-08T08:52:36.687Z,-68
2019-02-08T08:53:37.533Z,-68
2019-02-08T08:54:38.398Z,-68
2019-02-08T08:55:42.302Z,-68
2019-02-08T08:56:41.990Z,-68
2019-02-08T08:57:42.900Z,-68
2019-02-08T08:58:43.744Z,-68
2019-02-08T08:59:44.590Z,-67
2019-02-08T09:00:45.420Z,-67
2019-02-08T09:01:46.297Z,-67
2019-02-08T09:02:47.124Z,-67
2019-02-08T09:03:48.056Z,-67
2019-02-08T09:04:48.937Z,-67
2019-02-08T09:05:49.969Z,-67
2019-02-08T09:06:50.951Z,-68
2019-02-08T09:07:51.934Z,-67
2019-02-08T09:08:52.831Z,-67
2019-02-08T09:09:53.666Z,-67
2019-02-08T09:10:54.507Z,-67
2019-02-08T09:11:55.358Z,-68
2019-02-08T09:12:56.320Z,-68
2019-02-08T09:13:57.206Z,-68
2019-02-08T09:14:58.051Z,-68
2019-02-08T09:15:58.961Z,-68
2019-02-08T09:16:59.864Z,-69
2019-02-08T09:18:00.791Z,-68
2019-02-08T09:19:01.688Z,-68
2019-02-08T09:20:02.530Z,-68
2019-02-08T09:21:03.549Z,-68
2019-02-08T09:22:04.426Z,-68
2019-02-08T09:23:05.285Z,-68
2019-02-08T09:24:06.128Z,-68
2019-02-08T09:25:07.075Z,-68
2019-02-08T09:26:07.979Z,-68
2019-02-08T09:27:08.826Z,-68
2019-02-08T09:28:09.662Z,-69
2019-02-08T09:29:10.517Z,-68
2019-02-08T09:30:11.483Z,-68
2019-02-08T09:31:12.313Z,-68
2019-02-08T09:32:13.191Z,-68
2019-02-08T09:33:14.120Z,-68
2019-02-08T09:34:14.988Z,-68
2019-02-08T09:35:15.862Z,-68
2019-02-08T09:36:16.803Z,-68
2019-02-08T09:38:38.086Z,-67
2019-02-08T09:39:39.013Z,-70
2019-02-08T09:40:39.875Z,-68
2019-02-08T09:41:40.728Z,-68
2019-02-08T09:42:41.579Z,-68
2019-02-08T09:43:42.450Z,-68
2019-02-08T09:44:45.224Z,-68
2019-02-08T09:45:46.198Z,-68
2019-02-08T09:46:47.137Z,-68
2019-02-08T09:47:48.099Z,-68
2019-02-08T09:48:48.950Z,-68
2019-02-08T09:49:49.803Z,-68
2019-02-08T09:50:50.644Z,-68
2019-02-08T09:51:51.520Z,-68
2019-02-08T09:52:52.376Z,-68
2019-02-08T09:53:53.225Z,-68
2019-02-08T09:54:54.146Z,-68
2019-02-08T09:55:57.913Z,-68
2019-02-08T09:56:57.731Z,-68
2019-02-08T09:57:58.595Z,-68
2019-02-08T09:58:59.405Z,-68
2019-02-08T10:00:00.339Z,-69
2019-02-08T10:01:01.231Z,-69
2019-02-08T10:02:02.178Z,-69
2019-02-08T10:03:03.110Z,-69
2019-02-08T10:04:03.976Z,-69
2019-02-08T10:05:04.877Z,-69
2019-02-08T10:06:05.849Z,-69
2019-02-08T10:07:06.857Z,-69
2019-02-08T10:08:07.937Z,-68
2019-02-08T10:09:08.773Z,-68
2019-02-08T10:10:09.605Z,-68
2019-02-08T10:11:10.496Z,-68
2019-02-08T10:12:11.407Z,-69
2019-02-08T10:13:12.297Z,-69
2019-02-08T10:14:13.115Z,-69
2019-02-08T10:15:13.990Z,-68
2019-02-08T10:16:15.027Z,-68
2019-02-08T10:17:15.838Z,-69
2019-02-08T10:18:16.702Z,-69
2019-02-08T10:19:17.590Z,-68
2019-02-08T10:20:18.495Z,-68
2019-02-08T10:21:19.522Z,-69
2019-02-08T10:22:20.428Z,-69
2019-02-08T10:23:21.336Z,-68
2019-02-08T10:24:22.212Z,-68
2019-02-08T10:25:23.072Z,-68
2019-02-08T10:26:23.962Z,-68
2019-02-08T10:27:24.877Z,-68
2019-02-08T10:28:25.776Z,-68
2019-02-08T10:29:26.681Z,-68
2019-02-08T10:30:27.817Z,-69
2019-02-08T10:31:28.655Z,-68
2019-02-08T10:32:31.013Z,-66
2019-02-08T10:33:32.000Z,-67
2019-02-08T10:34:32.928Z,-68
2019-02-08T10:35:34.218Z,-68
2019-02-08T10:36:35.198Z,-66
2019-02-08T10:37:36.019Z,-66
2019-02-08T10:38:36.910Z,-67
2019-02-08T10:39:37.860Z,-67
2019-02-08T10:40:38.748Z,-67
2019-02-08T10:41:39.656Z,-67
2019-02-08T10:42:41.754Z,-67
2019-02-08T10:43:42.842Z,-67
2019-02-08T10:44:43.707Z,-67
2019-02-08T10:45:44.747Z,-67
2019-02-08T10:46:45.595Z,-67
2019-02-08T10:47:46.560Z,-67
2019-02-08T10:48:47.445Z,-67
2019-02-08T10:49:48.291Z,-68
2019-02-08T10:50:49.211Z,-67
2019-02-08T10:51:50.053Z,-67
2019-02-08T10:52:50.973Z,-67
2019-02-08T10:53:53.310Z,-67
2019-02-08T10:54:54.343Z,-67
2019-02-08T10:55:55.265Z,-67
2019-02-08T10:56:56.138Z,-69
2019-02-08T10:57:57.102Z,-67
2019-02-08T10:58:58.074Z,-67
2019-02-08T10:59:58.935Z,-67
2019-02-08T11:00:59.783Z,-67
2019-02-08T11:02:00.655Z,-67
2019-02-08T11:03:01.491Z,-68
2019-02-08T11:04:02.478Z,-68
2019-02-08T11:05:03.314Z,-68
2019-02-08T11:06:04.413Z,-68
2019-02-08T11:07:05.214Z,-68
2019-02-08T11:08:06.109Z,-68
2019-02-08T11:09:06.986Z,-68
2019-02-08T11:10:07.845Z,-68
2019-02-08T11:11:08.828Z,-66
2019-02-08T11:12:09.653Z,-67
2019-02-08T11:13:10.810Z,-67
2019-02-08T11:14:11.643Z,-68
2019-02-08T11:15:12.484Z,-67
2019-02-08T11:16:13.304Z,-67
2019-02-08T11:17:14.162Z,-67
2019-02-08T11:18:15.177Z,-67
2019-02-08T11:19:16.036Z,-67
2019-02-08T11:20:16.914Z,-68
2019-02-08T11:21:17.860Z,-67
2019-02-08T11:22:18.758Z,-67
2019-02-08T11:23:19.685Z,-68
2019-02-08T11:24:20.508Z,-67
2019-02-08T11:25:21.346Z,-68
2019-02-08T11:26:24.135Z,-68
2019-02-08T11:27:24.963Z,-68
2019-02-08T11:28:25.849Z,-68
2019-02-08T11:29:26.708Z,-68
2019-02-08T11:30:27.543Z,-68
2019-02-08T11:31:28.394Z,-68
2019-02-08T11:32:42.964Z,-68
2019-02-08T11:33:32.191Z,-68
2019-02-08T11:34:33.125Z,-68
2019-02-08T11:35:34.124Z,-67
2019-02-08T11:36:34.945Z,-68
2019-02-08T11:37:35.785Z,-68
2019-02-08T11:38:36.650Z,-68
2019-02-08T11:39:37.461Z,-68
2019-02-08T11:40:38.298Z,-68
2019-02-08T11:41:40.305Z,-68
2019-02-08T11:42:41.167Z,-68
2019-02-08T11:43:42.066Z,-69
2019-02-08T11:44:42.908Z,-69
2019-02-08T11:45:44.006Z,-69
2019-02-08T11:46:44.847Z,-69
2019-02-08T11:47:45.723Z,-69
2019-02-08T11:48:46.620Z,-69
2019-02-08T11:49:47.460Z,-69
2019-02-08T11:50:48.313Z,-69
2019-02-08T11:51:49.136Z,-69
2019-02-08T11:52:50.213Z,-69
2019-02-08T11:53:51.071Z,-69
2019-02-08T11:54:51.945Z,-69
2019-02-08T11:55:52.783Z,-69
2019-02-08T11:56:53.633Z,-69
2019-02-08T11:57:54.729Z,-69
2019-02-08T11:58:55.536Z,-69
2019-02-08T11:59:56.508Z,-69
2019-02-08T12:00:57.370Z,-69
2019-02-08T12:01:58.236Z,-69
2019-02-08T12:02:59.089Z,-68
2019-02-08T12:03:59.957Z,-68
2019-02-08T12:05:00.768Z,-68
2019-02-08T12:06:01.632Z,-69
2019-02-08T12:07:02.538Z,-69
2019-02-08T12:08:03.457Z,-69
2019-02-08T12:09:04.315Z,-69
2019-02-08T12:10:05.160Z,-69
2019-02-08T12:11:06.043Z,-69
2019-02-08T12:12:07.029Z,-69
2019-02-08T12:13:07.894Z,-69
2019-02-08T12:14:08.901Z,-69
2019-02-08T12:15:09.834Z,-69
2019-02-08T12:16:10.799Z,-69
2019-02-08T12:17:11.731Z,-69
2019-02-08T12:18:12.582Z,-69
2019-02-08T12:19:13.450Z,-69
2019-02-08T12:20:14.403Z,-67
2019-02-08T12:21:15.215Z,-67
2019-02-08T12:22:16.063Z,-68
2019-02-08T12:23:16.973Z,-68
2019-02-08T12:24:17.812Z,-68
2019-02-08T12:25:18.705Z,-68
2019-02-08T12:26:19.606Z,-68
2019-02-08T12:27:20.549Z,-68
2019-02-08T12:28:21.382Z,-68
2019-02-08T12:29:22.222Z,-68
2019-02-08T12:30:23.083Z,-68
2019-02-08T12:31:23.923Z,-68
2019-02-08T12:32:25.038Z,-66
2019-02-08T12:33:25.995Z,-66
2019-02-08T12:34:27.006Z,-66
2019-02-08T12:35:27.890Z,-66
2019-02-08T12:36:28.759Z,-68
2019-02-08T12:37:29.630Z,-67
2019-02-08T12:38:30.515Z,-67
2019-02-08T12:39:31.416Z,-68
2019-02-08T12:40:32.264Z,-69
2019-02-08T12:41:33.090Z,-69
2019-02-08T12:42:33.960Z,-69
2019-02-08T12:43:34.800Z,-69
2019-02-08T12:44:35.654Z,-69
2019-02-08T12:45:36.611Z,-69
2019-02-08T12:46:37.469Z,-69
2019-02-08T12:47:38.334Z,-69
2019-02-08T12:48:39.163Z,-69
2019-02-08T12:49:40.121Z,-73
2019-02-08T12:50:41.086Z,-69
2019-02-08T12:51:41.970Z,-69
2019-02-08T12:52:43.019Z,-69
2019-02-08T12:53:43.881Z,-69
2019-02-08T12:54:44.828Z,-69
2019-02-08T12:55:45.709Z,-70
2019-02-08T12:56:46.584Z,-70
2019-02-08T12:57:47.459Z,-69
2019-02-08T12:58:48.401Z,-68
2019-02-08T12:59:49.256Z,-69
2019-02-08T13:00:50.262Z,-69
2019-02-08T13:01:51.203Z,-69
2019-02-08T13:02:52.189Z,-69
2019-02-08T13:03:53.118Z,-69
2019-02-08T13:04:53.999Z,-68
2019-02-08T13:05:54.931Z,-69
2019-02-08T13:06:55.788Z,-69
2019-02-08T13:07:56.860Z,-71
2019-02-08T13:08:57.790Z,-69
2019-02-08T13:09:58.690Z,-69
2019-02-08T13:11:00.672Z,-69
2019-02-08T13:12:01.774Z,-68
2019-02-08T13:13:02.846Z,-68
2019-02-08T13:14:03.818Z,-69
2019-02-08T13:15:04.800Z,-68
2019-02-08T13:16:05.662Z,-69
2019-02-08T13:17:06.495Z,-69
2019-02-08T13:18:07.310Z,-69
2019-02-08T13:19:08.157Z,-69
2019-02-08T13:20:08.989Z,-71
2019-02-08T13:21:10.218Z,-70
2019-02-08T13:22:11.046Z,-70
2019-02-08T13:23:11.996Z,-70
2019-02-08T13:24:12.932Z,-69
2019-02-08T13:25:13.799Z,-69
2019-02-08T13:26:14.898Z,-69
2019-02-08T13:27:15.736Z,-68
2019-02-08T13:28:16.616Z,-69
2019-02-08T13:29:17.528Z,-69
2019-02-08T13:30:18.365Z,-69
2019-02-08T13:31:19.297Z,-70
2019-02-08T13:32:20.227Z,-70
2019-02-08T13:33:21.110Z,-68
2019-02-08T13:34:21.978Z,-70
2019-02-08T13:35:22.826Z,-69
2019-02-08T13:36:23.646Z,-69
2019-02-08T13:37:24.478Z,-70
2019-02-08T13:38:25.321Z,-69
2019-02-08T13:39:26.232Z,-69
2019-02-08T13:40:27.169Z,-69
2019-02-08T13:41:28.105Z,-69
2019-02-08T13:42:29.053Z,-68
2019-02-08T13:43:29.915Z,-69
2019-02-08T13:44:31.007Z,-69
2019-02-08T13:45:31.845Z,-69
2019-02-08T13:46:32.681Z,-69
2019-02-08T13:47:33.531Z,-69
2019-02-08T13:48:34.378Z,-69
2019-02-08T13:49:35.600Z,-69
2019-02-08T13:50:36.452Z,-69
2019-02-08T13:51:37.286Z,-69
2019-02-08T13:52:38.141Z,-69
2019-02-08T13:53:39.048Z,-70
2019-02-08T13:54:39.938Z,-69
2019-02-08T13:55:40.761Z,-69
2019-02-08T13:56:41.635Z,-70
2019-02-08T13:57:42.549Z,-68
2019-02-08T13:58:43.502Z,-70
2019-02-08T13:59:44.357Z,-70
2019-02-08T14:00:45.221Z,-69
2019-02-08T14:01:46.310Z,-69